Time;durP1;ratioP1;P1;durP2;ratioP2;P2;SDS_P1;SDS_P2;PMS_P1;PMS_P2;Temp;Humidity;BMP_temperature;BMP_pressure;BME280_temperature;BME280_humidity;BME280_pressure;Samples;Min_cycle;Max_cycle;Signal;HPM_P1;HPM_P2
2022/08/10 00:00:21;;;;;;;2.92;2.72;;;24.00;99.90;;;;;;5051159;28;20201;-75
2022/08/10 00:02:51;;;;;;;3.17;2.95;;;24.00;99.90;;;;;;5048281;28;20218;-76
2022/08/10 00:05:19;;;;;;;2.83;2.63;;;24.00;99.90;;;;;;5047057;28;20607;-75
2022/08/10 00:07:46;;;;;;;3.10;2.90;;;24.00;99.90;;;;;;5048969;28;20226;-75
2022/08/10 00:10:15;;;;;;;2.92;2.72;;;24.00;99.90;;;;;;5049825;28;20206;-75
2022/08/10 00:12:43;;;;;;;3.25;2.97;;;23.90;99.90;;;;;;5051443;28;20218;-76
2022/08/10 00:15:12;;;;;;;2.70;2.50;;;23.90;99.90;;;;;;5045038;28;20195;-76
2022/08/10 00:17:39;;;;;;;3.35;2.75;;;23.90;99.90;;;;;;5048172;28;20226;-76
2022/08/10 00:20:09;;;;;;;2.90;2.70;;;23.90;99.90;;;;;;5051329;28;20205;-75
2022/08/10 00:22:36;;;;;;;2.50;2.40;;;23.90;99.90;;;;;;5050117;28;21240;-76
2022/08/10 00:25:04;;;;;;;3.00;2.80;;;23.90;99.90;;;;;;5048875;28;20649;-76
2022/08/10 00:27:31;;;;;;;3.00;2.80;;;23.90;99.90;;;;;;5051107;28;20246;-75
2022/08/10 00:29:58;;;;;;;3.05;2.83;;;23.90;99.90;;;;;;5047071;28;20195;-76
2022/08/10 00:32:26;;;;;;;2.95;2.75;;;23.90;99.90;;;;;;5049222;28;20223;-76
2022/08/10 00:34:53;;;;;;;2.90;2.70;;;23.90;99.90;;;;;;5046500;28;20202;-76
2022/08/10 00:37:21;;;;;;;2.92;2.72;;;23.80;99.90;;;;;;5050490;28;20230;-75
2022/08/10 00:39:48;;;;;;;3.38;2.92;;;23.80;99.90;;;;;;5048218;28;20207;-75
2022/08/10 00:42:16;;;;;;;3.05;2.85;;;23.70;99.90;;;;;;5047068;28;20608;-76
2022/08/10 00:44:48;;;;;;;3.30;3.10;;;23.60;99.90;;;;;;5043483;28;20207;-76
2022/08/10 00:47:16;;;;;;;3.60;3.30;;;23.50;99.90;;;;;;5050475;28;20227;-76
2022/08/10 00:49:44;;;;;;;3.17;2.97;;;23.50;99.90;;;;;;5049660;28;20195;-77
2022/08/10 00:52:13;;;;;;;3.38;3.08;;;23.40;99.90;;;;;;5050425;28;20231;-76
2022/08/10 00:54:43;;;;;;;3.25;3.03;;;23.40;99.90;;;;;;5049571;28;20199;-75
2022/08/10 00:57:10;;;;;;;3.20;3.00;;;23.40;99.90;;;;;;5047001;28;20231;-76
2022/08/10 00:59:38;;;;;;;3.10;2.90;;;23.40;99.90;;;;;;5048837;28;20203;-76
2022/08/10 01:02:05;;;;;;;3.10;2.80;;;23.40;99.90;;;;;;5046244;28;20198;-75
2022/08/10 01:04:32;;;;;;;3.17;2.83;;;23.30;99.90;;;;;;5045023;28;20206;-76
2022/08/10 01:07:12;;;;;;;3.00;2.80;;;23.40;99.90;;;;;;5046283;28;20249;-75
2022/08/10 01:09:50;;;;;;;3.38;3.17;;;23.40;99.90;;;;;;5044587;28;20259;-75
2022/08/10 01:12:28;;;;;;;2.90;2.70;;;23.40;99.90;;;;;;5045317;28;20222;-75
2022/08/10 01:15:03;;;;;;;3.10;2.90;;;23.40;99.90;;;;;;5047677;28;20194;-75
2022/08/10 01:17:41;;;;;;;2.63;2.42;;;23.40;99.90;;;;;;5048000;28;20229;-75
2022/08/10 01:20:18;;;;;;;3.38;3.15;;;23.50;99.90;;;;;;5043695;28;20198;-75
2022/08/10 01:23:18;;;;;;;3.78;2.78;;;23.50;99.90;;;;;;5044783;28;20238;-75
2022/08/10 01:26:04;;;;;;;2.95;2.75;;;23.50;99.90;;;;;;5043845;28;20230;-76
2022/08/10 01:28:38;;;;;;;2.80;2.60;;;23.50;99.90;;;;;;5043013;28;20230;-75
2022/08/10 01:31:12;;;;;;;3.10;2.90;;;23.50;99.90;;;;;;5047272;28;20495;-75
2022/08/10 01:33:47;;;;;;;3.22;3.03;;;23.40;99.90;;;;;;5043400;28;20218;-76
2022/08/10 01:36:19;;;;;;;2.90;2.70;;;23.40;99.90;;;;;;5046080;28;20191;-74
2022/08/10 01:38:49;;;;;;;2.97;2.78;;;23.40;99.90;;;;;;5046208;28;20656;-75
2022/08/10 01:41:22;;;;;;;2.80;2.60;;;23.40;99.90;;;;;;5045834;28;20199;-75
2022/08/10 01:43:54;;;;;;;2.50;2.40;;;23.40;99.90;;;;;;5046680;28;20227;-77
2022/08/10 01:46:24;;;;;;;2.80;2.60;;;23.40;99.90;;;;;;5049407;28;20222;-76
2022/08/10 01:48:54;;;;;;;2.90;2.70;;;23.40;99.90;;;;;;5047171;28;20233;-75
2022/08/10 01:51:26;;;;;;;2.65;2.55;;;23.40;99.90;;;;;;5044264;28;20198;-75
2022/08/10 01:53:57;;;;;;;2.88;2.67;;;23.40;99.90;;;;;;5051739;28;20896;-76
2022/08/10 01:56:28;;;;;;;2.80;2.60;;;23.30;99.90;;;;;;5042427;28;20203;-77
2022/08/10 01:58:58;;;;;;;2.83;2.63;;;23.30;99.90;;;;;;5048532;28;20219;-77
2022/08/10 02:01:32;;;;;;;2.72;2.53;;;23.20;99.90;;;;;;5045387;28;20570;-75
2022/08/10 02:04:05;;;;;;;2.90;2.50;;;23.10;99.90;;;;;;5047273;28;20215;-75
2022/08/10 02:06:35;;;;;;;2.70;2.47;;;23.10;99.90;;;;;;5046780;28;20223;-75
2022/08/10 02:09:04;;;;;;;2.80;2.60;;;23.10;99.90;;;;;;5057968;22;20226;-75
2022/08/10 02:11:31;;;;;;;2.80;2.60;;;23.10;99.90;;;;;;5040434;28;20210;-75
2022/08/10 02:14:00;;;;;;;2.78;2.58;;;23.10;99.90;;;;;;5042857;28;20372;-78
2022/08/10 02:16:30;;;;;;;3.22;2.92;;;23.10;99.90;;;;;;5045947;28;20693;-76
2022/08/10 02:18:58;;;;;;;2.88;2.67;;;23.10;99.90;;;;;;5043137;28;20273;-76
2022/08/10 02:21:26;;;;;;;2.60;2.40;;;23.10;99.90;;;;;;5047590;28;20207;-76
2022/08/10 02:23:54;;;;;;;2.72;2.53;;;23.10;99.90;;;;;;5047520;28;20310;-76
2022/08/10 02:26:22;;;;;;;2.60;2.50;;;23.00;99.90;;;;;;5045047;28;20215;-76
2022/08/10 02:28:52;;;;;;;2.95;2.70;;;23.00;99.90;;;;;;5047247;28;20246;-76
2022/08/10 02:31:23;;;;;;;2.50;2.30;;;23.00;99.90;;;;;;5052761;28;20202;-75
2022/08/10 02:33:54;;;;;;;2.55;2.45;;;22.90;99.90;;;;;;5050820;28;20214;-76
2022/08/10 02:36:24;;;;;;;2.55;2.35;;;22.90;99.90;;;;;;5048243;28;20639;-77
2022/08/10 02:38:54;;;;;;;2.60;2.40;;;22.90;99.90;;;;;;5044101;28;20314;-77
2022/08/10 02:41:28;;;;;;;2.53;2.33;;;22.90;99.90;;;;;;5043788;28;20207;-76
2022/08/10 02:44:02;;;;;;;2.72;2.50;;;22.90;99.90;;;;;;5049675;28;20241;-76
2022/08/10 02:46:35;;;;;;;2.55;2.38;;;22.80;99.90;;;;;;5043619;28;20219;-75
2022/08/10 02:49:05;;;;;;;2.22;2.03;;;22.80;99.90;;;;;;5046955;28;20226;-76
2022/08/10 02:51:39;;;;;;;2.70;2.50;;;22.80;99.90;;;;;;5046426;28;20214;-76
2022/08/10 02:54:09;;;;;;;2.33;2.22;;;22.80;99.90;;;;;;5033840;28;20771;-77
2022/08/10 02:56:39;;;;;;;2.13;2.03;;;22.80;99.90;;;;;;5036048;28;20199;-77
2022/08/10 02:59:10;;;;;;;2.00;1.90;;;22.70;99.90;;;;;;5043945;28;20226;-76
2022/08/10 03:01:43;;;;;;;2.22;2.13;;;22.70;99.90;;;;;;5053041;28;20205;-76
2022/08/10 03:04:19;;;;;;;2.50;2.30;;;22.70;99.90;;;;;;5048130;28;20246;-76
2022/08/10 03:06:56;;;;;;;2.30;2.20;;;22.70;99.90;;;;;;5049780;28;20272;-76
2022/08/10 03:09:25;;;;;;;2.33;2.22;;;22.60;99.90;;;;;;5029088;28;20219;-76
2022/08/10 03:11:54;;;;;;;2.22;2.13;;;22.60;99.90;;;;;;5026585;28;20203;-76
2022/08/10 03:14:22;;;;;;;2.30;2.20;;;22.60;99.90;;;;;;5044905;28;20202;-76
2022/08/10 03:16:51;;;;;;;2.50;1.95;;;22.60;99.90;;;;;;5046209;28;20195;-77
2022/08/10 03:19:21;;;;;;;2.20;2.10;;;22.50;99.90;;;;;;5026033;28;20223;-75
2022/08/10 03:21:49;;;;;;;2.53;2.33;;;22.50;99.90;;;;;;5025616;28;20574;-75
2022/08/10 03:24:21;;;;;;;2.33;2.13;;;22.50;99.90;;;;;;5024484;28;20199;-78
2022/08/10 03:26:50;;;;;;;2.45;2.35;;;22.40;99.90;;;;;;5029087;28;20230;-78
2022/08/10 03:29:18;;;;;;;2.45;2.28;;;22.40;99.90;;;;;;5024239;28;20243;-75
2022/08/10 03:31:46;;;;;;;2.40;2.20;;;22.40;99.90;;;;;;5021716;28;20207;-75
2022/08/10 03:34:15;;;;;;;2.90;2.08;;;22.40;99.90;;;;;;5025184;28;20215;-75
2022/08/10 03:36:44;;;;;;;2.45;2.35;;;22.40;99.90;;;;;;5023864;28;20590;-75
2022/08/10 03:39:11;;;;;;;3.00;2.55;;;22.30;99.90;;;;;;5025232;28;20215;-75
2022/08/10 03:41:42;;;;;;;2.80;2.60;;;22.30;99.90;;;;;;5022567;28;20203;-76
2022/08/10 03:44:12;;;;;;;2.50;2.20;;;22.30;99.90;;;;;;5025838;28;20223;-75
2022/08/10 03:46:45;;;;;;;2.92;2.55;;;22.30;99.90;;;;;;5029832;28;20218;-75
2022/08/10 03:49:13;;;;;;;2.63;2.42;;;22.20;99.90;;;;;;5064037;28;20229;-75
2022/08/10 03:51:40;;;;;;;2.75;2.50;;;22.10;99.90;;;;;;5068235;28;20613;-74
2022/08/10 03:54:09;;;;;;;3.42;2.25;;;22.20;99.90;;;;;;5061964;28;20218;-76
2022/08/10 03:56:38;;;;;;;2.75;2.55;;;22.10;99.90;;;;;;5067887;28;20206;-76
2022/08/10 03:59:06;;;;;;;2.40;2.30;;;22.10;99.90;;;;;;5064128;28;20233;-73
2022/08/10 04:01:34;;;;;;;2.67;2.47;;;22.10;99.90;;;;;;5066585;28;20203;-75
2022/08/10 04:04:01;;;;;;;2.95;2.65;;;22.10;99.90;;;;;;5067308;28;20218;-74
2022/08/10 04:06:28;;;;;;;2.72;2.53;;;22.00;99.90;;;;;;5070396;28;20209;-74
2022/08/10 04:08:55;;;;;;;2.70;2.50;;;22.00;99.90;;;;;;5064125;28;20226;-75
2022/08/10 04:11:24;;;;;;;2.72;2.53;;;22.00;99.90;;;;;;5064676;28;20198;-75
2022/08/10 04:13:51;;;;;;;2.58;2.40;;;22.00;99.90;;;;;;5061008;28;20215;-76
2022/08/10 04:16:18;;;;;;;2.50;2.30;;;22.00;99.90;;;;;;5064258;28;20195;-77
2022/08/10 04:18:45;;;;;;;2.90;2.70;;;22.00;99.90;;;;;;5064910;28;20222;-75
2022/08/10 04:21:16;;;;;;;2.60;2.40;;;21.90;99.90;;;;;;5060294;28;20210;-76
2022/08/10 04:23:46;;;;;;;2.30;2.20;;;21.90;99.90;;;;;;5063472;28;20759;-76
2022/08/10 04:26:15;;;;;;;2.90;2.70;;;21.90;99.90;;;;;;5067120;28;20704;-76
2022/08/10 04:28:45;;;;;;;2.80;2.60;;;21.80;99.90;;;;;;5066104;28;20385;-75
2022/08/10 04:31:16;;;;;;;2.50;2.30;;;21.80;99.90;;;;;;5066754;28;20244;-74
2022/08/10 04:33:47;;;;;;;2.45;2.28;;;21.80;99.90;;;;;;5062814;28;20226;-75
2022/08/10 04:36:17;;;;;;;2.35;2.22;;;21.80;99.90;;;;;;5067401;28;20190;-75
2022/08/10 04:38:45;;;;;;;2.60;2.40;;;21.80;99.90;;;;;;5064101;28;20316;-75
2022/08/10 04:41:12;;;;;;;2.47;2.28;;;21.80;99.90;;;;;;5060349;28;20194;-76
2022/08/10 04:43:39;;;;;;;2.40;2.25;;;21.80;99.90;;;;;;5071499;28;20233;-77
2022/08/10 04:46:08;;;;;;;2.50;2.30;;;21.90;99.90;;;;;;5068207;28;20206;-76
2022/08/10 04:48:35;;;;;;;2.42;2.22;;;22.00;99.90;;;;;;5068731;28;20225;-75
2022/08/10 04:51:02;;;;;;;2.50;2.30;;;22.00;99.90;;;;;;5064333;28;20669;-76
2022/08/10 04:53:29;;;;;;;2.92;2.40;;;22.00;99.90;;;;;;5063560;28;20213;-75
2022/08/10 04:55:56;;;;;;;2.35;2.25;;;22.00;99.90;;;;;;5066321;28;20206;-74
2022/08/10 04:58:23;;;;;;;2.50;2.40;;;22.10;99.90;;;;;;5067638;28;20241;-76
2022/08/10 05:00:51;;;;;;;2.40;2.20;;;22.10;99.90;;;;;;5063904;28;20210;-76
2022/08/10 05:03:19;;;;;;;2.58;2.38;;;22.10;99.90;;;;;;5063741;28;21809;-76
2022/08/10 05:05:46;;;;;;;2.15;2.05;;;22.10;99.90;;;;;;5071821;28;20194;-75
2022/08/10 05:08:13;;;;;;;2.40;2.20;;;22.10;99.90;;;;;;5066696;28;20245;-76
2022/08/10 05:10:40;;;;;;;2.35;2.15;;;22.10;99.90;;;;;;5060048;28;20191;-75
2022/08/10 05:13:07;;;;;;;2.33;2.13;;;22.20;99.90;;;;;;5068211;28;20221;-75
2022/08/10 05:15:34;;;;;;;2.47;2.30;;;22.30;99.90;;;;;;5060918;28;20664;-75
2022/08/10 05:18:02;;;;;;;2.30;2.10;;;22.40;99.90;;;;;;5061139;28;20221;-77
2022/08/10 05:20:30;;;;;;;2.15;2.05;;;22.40;99.90;;;;;;5063242;28;20199;-76
2022/08/10 05:22:57;;;;;;;2.30;2.10;;;22.40;99.90;;;;;;5065262;28;20296;-77
2022/08/10 05:25:24;;;;;;;3.58;2.38;;;22.40;99.90;;;;;;5062352;28;20209;-76
2022/08/10 05:27:51;;;;;;;2.92;2.72;;;22.30;99.90;;;;;;5061084;28;20234;-76
2022/08/10 05:30:20;;;;;;;2.45;2.28;;;22.20;99.90;;;;;;5068674;28;20210;-76
2022/08/10 05:32:48;;;;;;;2.40;2.30;;;22.10;99.90;;;;;;5056358;28;20300;-75
2022/08/10 05:35:15;;;;;;;3.17;2.20;;;22.10;99.90;;;;;;5054675;28;20201;-76
2022/08/10 05:37:45;;;;;;;2.30;2.20;;;22.20;99.90;;;;;;5055720;28;20686;-74
2022/08/10 05:40:12;;;;;;;2.28;2.17;;;22.30;99.90;;;;;;5057950;28;20199;-75
2022/08/10 05:42:40;;;;;;;2.05;1.95;;;22.30;99.90;;;;;;5060483;28;20448;-74
2022/08/10 05:45:15;;;;;;;2.70;2.30;;;22.40;99.90;;;;;;5053330;28;20202;-75
2022/08/10 05:47:42;;;;;;;2.40;2.20;;;22.50;99.90;;;;;;5057856;28;20343;-75
2022/08/10 05:50:11;;;;;;;2.45;2.25;;;22.50;99.90;;;;;;5058370;28;20205;-77
2022/08/10 05:52:38;;;;;;;2.40;2.20;;;22.60;99.90;;;;;;5059637;28;20218;-76
2022/08/10 05:55:08;;;;;;;2.00;1.90;;;22.60;99.90;;;;;;5058916;28;20201;-75
2022/08/10 05:57:36;;;;;;;2.35;2.22;;;22.60;99.90;;;;;;5065449;28;20210;-76
2022/08/10 06:00:07;;;;;;;2.33;2.13;;;22.70;99.90;;;;;;5061722;28;20194;-74
2022/08/10 06:02:38;;;;;;;2.53;2.33;;;22.70;99.90;;;;;;5059716;28;20280;-74
2022/08/10 06:05:07;;;;;;;2.30;2.10;;;22.60;99.90;;;;;;5064974;28;20205;-75
2022/08/10 06:07:37;;;;;;;2.40;2.20;;;22.70;99.90;;;;;;5058679;28;20858;-74
2022/08/10 06:10:05;;;;;;;1.88;1.77;;;22.70;99.90;;;;;;5063892;28;20248;-76
2022/08/10 06:12:34;;;;;;;2.30;2.10;;;22.80;99.90;;;;;;5060919;28;20229;-75
2022/08/10 06:15:02;;;;;;;2.05;1.90;;;23.00;99.90;;;;;;5063697;28;20656;-76
2022/08/10 06:17:30;;;;;;;2.13;2.03;;;23.10;99.90;;;;;;5062531;28;20222;-75
2022/08/10 06:19:58;;;;;;;2.35;2.15;;;23.20;99.90;;;;;;5059535;28;20218;-75
2022/08/10 06:22:27;;;;;;;2.60;2.40;;;23.20;99.90;;;;;;5057863;28;20229;-75
2022/08/10 06:24:56;;;;;;;3.05;2.17;;;23.30;99.90;;;;;;5063529;28;20194;-74
2022/08/10 06:27:23;;;;;;;2.75;2.22;;;23.30;99.90;;;;;;5062883;28;20226;-74
2022/08/10 06:29:53;;;;;;;2.65;2.22;;;23.50;99.90;;;;;;5059514;28;20240;-77
2022/08/10 06:32:26;;;;;;;2.38;2.28;;;23.40;99.90;;;;;;5062264;28;20223;-77
2022/08/10 06:34:55;;;;;;;2.15;2.05;;;23.30;99.90;;;;;;5057018;28;20203;-76
2022/08/10 06:37:26;;;;;;;2.72;2.53;;;23.30;99.90;;;;;;5063398;28;20711;-76
2022/08/10 06:39:53;;;;;;;2.33;2.17;;;23.30;99.90;;;;;;5060259;28;20240;-75
2022/08/10 06:42:31;;;;;;;2.13;2.03;;;23.30;99.90;;;;;;5060613;28;20233;-78
2022/08/10 06:45:04;;;;;;;2.28;2.03;;;23.40;99.90;;;;;;5062240;28;20205;-78
2022/08/10 06:47:39;;;;;;;2.40;2.25;;;23.50;99.90;;;;;;5062019;28;20720;-76
2022/08/10 06:50:12;;;;;;;2.53;2.33;;;23.60;99.90;;;;;;5063424;28;20670;-75
2022/08/10 06:52:42;;;;;;;2.38;2.10;;;23.70;99.90;;;;;;5060450;28;20226;-75
2022/08/10 06:55:13;;;;;;;2.33;2.17;;;23.70;99.90;;;;;;5059386;28;20204;-76
2022/08/10 06:57:42;;;;;;;2.47;2.28;;;23.60;99.90;;;;;;5061443;28;20210;-76
2022/08/10 07:00:14;;;;;;;2.30;2.13;;;23.60;99.90;;;;;;5065931;28;20564;-75
2022/08/10 07:02:50;;;;;;;2.33;2.22;;;23.60;99.90;;;;;;5062512;28;20287;-75
2022/08/10 07:05:21;;;;;;;2.05;1.95;;;23.60;99.90;;;;;;5062419;28;20201;-75
2022/08/10 07:07:51;;;;;;;2.58;2.33;;;23.60;99.90;;;;;;5063085;28;20305;-76
2022/08/10 07:10:20;;;;;;;2.20;2.10;;;23.60;99.90;;;;;;5062829;28;20202;-75
2022/08/10 07:12:50;;;;;;;2.33;2.13;;;23.80;99.90;;;;;;5063961;28;20616;-76
2022/08/10 07:15:19;;;;;;;2.03;1.88;;;24.10;99.90;;;;;;5062264;28;20576;-75
2022/08/10 07:17:47;;;;;;;2.63;1.92;;;24.20;99.90;;;;;;5063652;28;20222;-75
2022/08/10 07:20:18;;;;;;;4.05;2.88;;;24.30;99.90;;;;;;5058206;28;20186;-76
2022/08/10 07:22:48;;;;;;;2.72;2.53;;;24.50;99.90;;;;;;5057928;28;20311;-76
2022/08/10 07:25:19;;;;;;;2.20;2.10;;;24.60;99.90;;;;;;5063838;28;20198;-75
2022/08/10 07:27:48;;;;;;;2.50;2.30;;;24.70;99.90;;;;;;5061555;28;20731;-76
2022/08/10 07:30:16;;;;;;;3.03;2.83;;;24.90;99.90;;;;;;5063938;28;20210;-75
2022/08/10 07:32:47;;;;;;;2.78;2.40;;;25.30;99.90;;;;;;5058257;28;20711;-75
2022/08/10 07:35:17;;;;;;;2.83;2.30;;;25.50;99.90;;;;;;5058718;28;20198;-75
2022/08/10 07:37:48;;;;;;;2.42;2.22;;;25.60;99.90;;;;;;5052730;28;20225;-76
2022/08/10 07:40:16;;;;;;;2.45;2.25;;;26.00;99.90;;;;;;5065362;28;20660;-75
2022/08/10 07:42:45;;;;;;;2.63;2.40;;;26.30;99.90;;;;;;5061973;28;20230;-75
2022/08/10 07:45:12;;;;;;;2.90;2.70;;;26.50;99.90;;;;;;5063081;28;20195;-75
2022/08/10 07:47:46;;;;;;;2.75;2.53;;;26.40;99.90;;;;;;5058868;28;20308;-75
2022/08/10 07:50:16;;;;;;;2.40;2.17;;;26.30;99.90;;;;;;5059315;28;20738;-77
2022/08/10 07:52:45;;;;;;;2.90;2.70;;;26.50;99.90;;;;;;5056353;28;20830;-76
2022/08/10 07:55:16;;;;;;;2.40;2.30;;;26.80;99.90;;;;;;5062168;28;20201;-77
2022/08/10 07:57:46;;;;;;;2.67;2.25;;;27.00;99.90;;;;;;5063054;28;20221;-75
2022/08/10 08:00:15;;;;;;;2.58;2.40;;;27.30;99.90;;;;;;5062008;28;20194;-77
2022/08/10 08:02:51;;;;;;;2.47;2.30;;;27.20;99.90;;;;;;5056162;28;20229;-77
2022/08/10 08:05:21;;;;;;;2.47;2.30;;;27.10;99.90;;;;;;5071613;28;20217;-77
2022/08/10 08:07:49;;;;;;;3.55;2.60;;;27.00;99.90;;;;;;5065896;28;20222;-78
2022/08/10 08:10:18;;;;;;;2.47;2.28;;;27.00;99.90;;;;;;5060582;28;20520;-77
2022/08/10 08:12:46;;;;;;;2.22;2.13;;;27.20;99.90;;;;;;5059494;28;20214;-78
2022/08/10 08:15:17;;;;;;;2.80;2.60;;;27.50;99.90;;;;;;5058761;28;20205;-79
2022/08/10 08:17:47;;;;;;;2.90;2.65;;;27.50;99.90;;;;;;5058921;28;20217;-78
2022/08/10 08:20:16;;;;;;;2.13;2.03;;;27.10;99.90;;;;;;5057473;28;20190;-76
2022/08/10 08:22:44;;;;;;;2.80;2.60;;;27.20;99.90;;;;;;5056737;22;20227;-77
2022/08/10 08:25:13;;;;;;;2.58;2.38;;;26.90;99.90;;;;;;5021982;28;20218;-77
2022/08/10 08:27:42;;;;;;;2.97;2.67;;;26.80;99.90;;;;;;5030414;28;20216;-78
2022/08/10 08:30:10;;;;;;;2.47;2.13;;;27.10;99.90;;;;;;5028298;28;20199;-76
2022/08/10 08:32:40;;;;;;;2.17;2.08;;;27.40;99.90;;;;;;5035168;28;20227;-77
2022/08/10 08:35:11;;;;;;;2.22;2.13;;;27.80;99.90;;;;;;5031583;28;20286;-77
2022/08/10 08:37:40;;;;;;;3.78;2.75;;;27.90;99.90;;;;;;5030204;28;20411;-76
2022/08/10 08:40:11;;;;;;;8.13;2.70;;;28.00;99.90;;;;;;5021434;28;20196;-77
2022/08/10 08:43:01;;;;;;;2.65;2.45;;;27.90;99.90;;;;;;5022763;28;20232;-76
2022/08/10 08:45:36;;;;;;;3.22;2.92;;;27.80;99.90;;;;;;5024526;28;20760;-76
2022/08/10 08:48:22;;;;;;;2.50;2.30;;;28.10;99.90;;;;;;5037165;28;20226;-76
2022/08/10 08:51:05;;;;;;;2.63;2.35;;;28.00;99.90;;;;;;5023827;28;20208;-76
2022/08/10 08:53:50;;;;;;;2.97;2.30;;;27.90;99.90;;;;;;5021978;28;20231;-77
2022/08/10 08:56:25;;;;;;;3.25;2.33;;;27.90;99.90;;;;;;5029887;28;20628;-75
2022/08/10 08:59:05;;;;;;;2.70;2.50;;;28.00;99.90;;;;;;5033656;28;20211;-75
2022/08/10 09:01:49;;;;;;;3.20;2.60;;;28.10;99.90;;;;;;5033650;28;20191;-77
2022/08/10 09:04:47;;;;;;;2.40;2.20;;;28.40;99.90;;;;;;5026443;28;20295;-76
2022/08/10 09:07:57;;;;;;;2.65;2.45;;;28.60;99.90;;;;;;5020922;28;20230;-76
2022/08/10 09:10:35;;;;;;;3.15;2.30;;;28.80;99.90;;;;;;5028162;28;20226;-76
2022/08/10 09:13:09;;;;;;;2.70;2.50;;;28.80;99.90;;;;;;5021877;28;20229;-76
2022/08/10 09:15:41;;;;;;;8.43;2.50;;;28.70;99.90;;;;;;5030584;28;20202;-76
2022/08/10 09:18:16;;;;;;;2.63;2.42;;;28.70;99.90;;;;;;5019526;28;20254;-78
2022/08/10 09:20:51;;;;;;;2.92;2.25;;;28.70;99.90;;;;;;5028381;28;20822;-75
2022/08/10 09:23:32;;;;;;;2.70;2.50;;;28.80;99.90;;;;;;5022316;28;20284;-77
2022/08/10 09:26:04;;;;;;;4.35;2.53;;;28.90;99.90;;;;;;5022101;28;20204;-79
2022/08/10 09:28:39;;;;;;;2.60;2.40;;;29.10;99.90;;;;;;5019003;28;20238;-77
2022/08/10 09:31:09;;;;;;;3.28;2.53;;;29.00;99.90;;;;;;5028222;28;20272;-76
2022/08/10 09:33:46;;;;;;;2.40;2.20;;;28.90;99.90;;;;;;5022072;28;20222;-76
2022/08/10 09:36:23;;;;;;;4.30;2.40;;;28.80;99.90;;;;;;5027705;28;20227;-76
2022/08/10 09:39:02;;;;;;;2.58;2.33;;;28.80;99.90;;;;;;5024159;28;20241;-76
2022/08/10 09:41:41;;;;;;;2.88;2.67;;;28.80;99.90;;;;;;5024043;28;20208;-76
2022/08/10 09:44:17;;;;;;;2.58;2.33;;;28.90;99.90;;;;;;5032018;28;20604;-75
2022/08/10 09:46:59;;;;;;;4.72;2.75;;;29.00;99.90;;;;;;5022129;28;20202;-76
2022/08/10 09:49:36;;;;;;;2.70;2.40;;;29.10;99.90;;;;;;5036819;28;20224;-77
2022/08/10 09:52:15;;;;;;;2.70;2.50;;;29.10;99.90;;;;;;5040427;28;20195;-78
2022/08/10 09:54:58;;;;;;;2.85;2.58;;;29.00;99.90;;;;;;5024706;28;20672;-78
2022/08/10 09:57:33;;;;;;;4.43;2.60;;;29.10;99.90;;;;;;5021659;28;20220;-76
2022/08/10 10:00:09;;;;;;;3.47;2.42;;;29.10;99.90;;;;;;5024234;28;20645;-76
2022/08/10 10:02:47;;;;;;;3.15;2.50;;;29.20;99.90;;;;;;5026789;28;20224;-75
2022/08/10 10:05:32;;;;;;;2.50;2.30;;;29.20;99.90;;;;;;5026943;28;20290;-77
2022/08/10 10:08:09;;;;;;;4.68;2.70;;;29.30;99.90;;;;;;5034023;28;20243;-77
2022/08/10 10:10:44;;;;;;;2.33;2.20;;;29.10;99.90;;;;;;5023940;28;20982;-75
2022/08/10 10:13:19;;;;;;;2.70;2.45;;;29.20;99.90;;;;;;5027354;28;20219;-75
2022/08/10 10:15:53;;;;;;;3.55;2.65;;;29.40;99.90;;;;;;5025593;28;20211;-76
2022/08/10 10:18:31;;;;;;;3.72;2.75;;;29.60;99.90;;;;;;5022448;28;20629;-76
2022/08/10 10:21:05;;;;;;;3.85;2.40;;;29.50;99.90;;;;;;5018813;28;20210;-76
2022/08/10 10:23:46;;;;;;;2.90;2.60;;;29.50;99.90;;;;;;5023879;28;20216;-76
2022/08/10 10:26:24;;;;;;;2.85;2.47;;;29.60;99.90;;;;;;5023563;28;20568;-75
2022/08/10 10:29:04;;;;;;;2.92;2.63;;;29.60;99.90;;;;;;5014186;28;20226;-73
2022/08/10 10:31:38;;;;;;;3.25;2.95;;;29.70;99.90;;;;;;5015993;28;20200;-76
2022/08/10 10:34:14;;;;;;;2.80;2.60;;;29.70;99.90;;;;;;5028173;28;20223;-77
2022/08/10 10:36:43;;;;;;;2.67;2.40;;;29.90;99.90;;;;;;5024131;28;20585;-77
2022/08/10 10:39:13;;;;;;;3.15;2.58;;;29.80;99.90;;;;;;5021071;28;20230;-77
2022/08/10 10:41:49;;;;;;;5.53;2.88;;;29.70;99.90;;;;;;5023974;28;20196;-78
2022/08/10 10:44:42;;;;;;;3.20;2.90;;;29.60;99.90;;;;;;5021737;28;20214;-77
2022/08/10 10:47:25;;;;;;;3.03;2.60;;;29.50;99.90;;;;;;5022812;28;20796;-75
2022/08/10 10:50:03;;;;;;;6.03;3.22;;;29.60;99.90;;;;;;5026469;28;20216;-78
2022/08/10 10:52:40;;;;;;;4.40;2.78;;;29.50;99.90;;;;;;5015364;28;20230;-76
2022/08/10 10:55:16;;;;;;;3.63;3.10;;;29.50;99.90;;;;;;5022724;28;21002;-76
2022/08/10 10:57:58;;;;;;;5.50;2.75;;;29.60;99.90;;;;;;5028571;28;20246;-77
2022/08/10 11:00:30;;;;;;;5.13;3.13;;;29.80;99.90;;;;;;5028948;28;20195;-77
2022/08/10 11:03:22;;;;;;;4.20;3.03;;;29.90;99.90;;;;;;5026801;28;20221;-78
2022/08/10 11:06:01;;;;;;;5.40;2.80;;;30.00;99.90;;;;;;5031174;28;20534;-78
2022/08/10 11:08:34;;;;;;;2.90;2.70;;;30.10;99.90;;;;;;5024797;28;20996;-78
2022/08/10 11:11:07;;;;;;;3.17;2.70;;;30.20;99.90;;;;;;5030180;28;20204;-78
2022/08/10 11:13:40;;;;;;;2.92;2.72;;;30.20;99.90;;;;;;5027274;28;20273;-78
2022/08/10 11:16:16;;;;;;;4.15;3.00;;;30.30;99.90;;;;;;5028349;28;20514;-76
2022/08/10 11:18:58;;;;;;;3.83;2.90;;;30.50;99.90;;;;;;5026260;28;20297;-77
2022/08/10 11:21:43;;;;;;;4.32;3.20;;;30.40;99.90;;;;;;5019381;28;20200;-77
2022/08/10 11:24:17;;;;;;;2.95;2.67;;;30.40;99.90;;;;;;5027173;28;20709;-76
2022/08/10 11:26:49;;;;;;;4.05;2.85;;;30.50;99.90;;;;;;5024156;28;20245;-77
2022/08/10 11:29:24;;;;;;;3.42;3.10;;;30.40;99.90;;;;;;5031704;28;20219;-76
2022/08/10 11:31:57;;;;;;;3.47;2.90;;;30.30;99.90;;;;;;5022194;28;20191;-77
2022/08/10 11:34:35;;;;;;;2.95;2.75;;;30.40;99.90;;;;;;5029956;28;20191;-75
2022/08/10 11:37:14;;;;;;;3.30;3.03;;;30.70;99.90;;;;;;5024910;28;20195;-77
2022/08/10 11:39:51;;;;;;;3.70;3.03;;;30.60;99.90;;;;;;5029094;28;20234;-76
2022/08/10 11:42:30;;;;;;;7.47;2.65;;;30.50;99.90;;;;;;5024909;28;20223;-78
2022/08/10 11:45:02;;;;;;;3.75;2.80;;;30.50;99.90;;;;;;5032682;28;20662;-76
2022/08/10 11:47:37;;;;;;;3.35;2.65;;;30.50;99.90;;;;;;5020914;28;20275;-73
2022/08/10 11:50:13;;;;;;;3.75;2.67;;;30.50;99.90;;;;;;5021391;28;20230;-77
2022/08/10 11:52:46;;;;;;;3.67;2.90;;;30.60;99.90;;;;;;5022654;28;20250;-77
2022/08/10 11:55:19;;;;;;;3.05;2.80;;;30.70;99.90;;;;;;5037229;28;20199;-76
2022/08/10 11:57:49;;;;;;;3.97;2.47;;;30.60;99.90;;;;;;5015833;28;20215;-77
2022/08/10 12:00:18;;;;;;;4.53;2.67;;;30.80;99.90;;;;;;5022397;28;20269;-76
2022/08/10 12:02:49;;;;;;;2.47;2.28;;;30.80;99.90;;;;;;5025494;28;20240;-78
2022/08/10 12:05:19;;;;;;;2.78;2.58;;;30.90;99.90;;;;;;5037242;28;20195;-77
2022/08/10 12:07:50;;;;;;;3.22;2.95;;;30.90;99.90;;;;;;5021711;28;20219;-77
2022/08/10 12:10:19;;;;;;;2.90;2.50;;;31.00;99.90;;;;;;5020142;28;20219;-75
2022/08/10 12:12:54;;;;;;;2.72;2.53;;;31.00;99.90;;;;;;5018573;28;20270;-77
2022/08/10 12:15:32;;;;;;;2.97;2.78;;;31.20;99.90;;;;;;5023242;28;20698;-77
2022/08/10 12:18:04;;;;;;;2.72;2.53;;;31.20;99.90;;;;;;5022744;28;20227;-79
2022/08/10 12:20:35;;;;;;;3.72;2.72;;;31.20;99.90;;;;;;5023070;28;20188;-74
2022/08/10 12:23:10;;;;;;;2.65;2.45;;;31.10;99.90;;;;;;5018262;28;20313;-75
2022/08/10 12:25:43;;;;;;;3.80;2.70;;;31.20;99.90;;;;;;5023488;28;20240;-77
2022/08/10 12:28:15;;;;;;;2.40;2.20;;;31.20;99.90;;;;;;5025723;28;20781;-77
2022/08/10 12:30:50;;;;;;;2.78;2.45;;;31.30;99.90;;;;;;5013966;28;20752;-77
2022/08/10 12:33:22;;;;;;;4.03;2.70;;;31.40;99.90;;;;;;5026404;28;20572;-77
2022/08/10 12:35:59;;;;;;;2.75;2.53;;;31.50;99.90;;;;;;5018114;28;20204;-78
2022/08/10 12:38:36;;;;;;;2.97;2.58;;;31.50;99.90;;;;;;5025704;28;20230;-77
2022/08/10 12:41:07;;;;;;;3.08;2.25;;;31.60;99.90;;;;;;5021029;28;20465;-76
2022/08/10 12:43:43;;;;;;;3.60;2.42;;;31.50;99.90;;;;;;5021620;28;20227;-76
2022/08/10 12:46:18;;;;;;;3.75;2.60;;;31.70;99.90;;;;;;5021112;28;20642;-77
2022/08/10 12:48:54;;;;;;;2.80;2.60;;;31.60;99.90;;;;;;5023187;28;20218;-77
2022/08/10 12:51:26;;;;;;;2.65;2.45;;;31.60;99.90;;;;;;5022675;28;20220;-77
2022/08/10 12:53:57;;;;;;;2.60;2.40;;;31.50;99.50;;;;;;5024426;28;20362;-77
2022/08/10 12:56:27;;;;;;;2.50;2.30;;;31.50;99.90;;;;;;5020988;28;20192;-77
2022/08/10 12:58:55;;;;;;;2.20;2.05;;;31.50;99.60;;;;;;5021710;28;20395;-77
2022/08/10 13:01:26;;;;;;;2.42;2.22;;;31.50;99.50;;;;;;5018503;28;20635;-77
2022/08/10 13:04:00;;;;;;;2.38;2.17;;;31.60;99.30;;;;;;5015678;28;20223;-77
2022/08/10 13:06:29;;;;;;;2.40;2.20;;;31.60;98.60;;;;;;5014819;28;20203;-76
2022/08/10 13:09:08;;;;;;;2.60;2.25;;;31.70;99.00;;;;;;5022397;28;20234;-77
2022/08/10 13:11:38;;;;;;;3.33;2.70;;;31.80;98.90;;;;;;5027922;28;20206;-77